Time;durP1;ratioP1;P1;durP2;ratioP2;P2;SDS_P1;SDS_P2;PMS_P1;PMS_P2;Temp;Humidity;BMP_temperature;BMP_pressure;BME280_temperature;BME280_humidity;BME280_pressure;Samples;Min_cycle;Max_cycle;Signal;HPM_P1;HPM_P2
2021/08/21 00:01:10;;;;;;;;;;;;;;;24.76;36.56;99611.75;5075127;28;20008;-75
2021/08/21 00:03:36;;;;;;;;;;;;;;;24.75;36.68;99610.03;5058263;28;19924;-75
2021/08/21 00:06:02;;;;;;;;;;;;;;;24.72;36.97;99605.84;5041485;28;19928;-76
2021/08/21 00:08:28;;;;;;;;;;;;;;;24.69;37.24;99612.56;5041657;28;20018;-76
2021/08/21 00:10:54;;;;;;;;;;;;;;;24.68;37.35;99610.06;5058050;28;19924;-76
2021/08/21 00:13:19;;;;;;;;;;;;;;;24.66;37.46;99609.41;5075730;28;20397;-75
2021/08/21 00:15:45;;;;;;;;;;;;;;;24.65;37.60;99611.31;5074949;28;19976;-75
2021/08/21 00:18:11;;;;;;;;;;;;;;;24.63;37.81;99612.56;5058300;28;20425;-74
2021/08/21 00:20:37;;;;;;;;;;;;;;;24.63;38.00;99613.38;5041486;28;19924;-76
2021/08/21 00:23:02;;;;;;;;;;;;;;;24.57;38.15;99613.41;5058449;28;19924;-76
2021/08/21 00:25:28;;;;;;;;;;;;;;;24.55;38.19;99610.03;5041525;28;19934;-76
2021/08/21 00:27:54;;;;;;;;;;;;;;;24.50;38.35;99604.34;5058070;28;20011;-75
2021/08/21 00:30:20;;;;;;;;;;;;;;;24.47;38.29;99608.31;5041269;28;19927;-75
2021/08/21 00:32:46;;;;;;;;;;;;;;;24.45;38.06;99610.44;5058295;28;20363;-75
2021/08/21 00:35:12;;;;;;;;;;;;;;;24.41;38.26;99610.00;5092901;28;19928;-76
2021/08/21 00:37:38;;;;;;;;;;;;;;;24.34;38.11;99606.38;5042559;28;19930;-75
2021/08/21 00:40:04;;;;;;;;;;;;;;;24.24;38.13;99614.09;5061197;28;19924;-74
2021/08/21 00:42:30;;;;;;;;;;;;;;;24.06;38.27;99622.00;5044855;28;19923;-76
2021/08/21 00:44:56;;;;;;;;;;;;;;;23.86;38.55;99622.75;5062041;28;19970;-76
2021/08/21 00:47:22;;;;;;;;;;;;;;;23.75;38.47;99618.72;5096382;28;20338;-76
2021/08/21 00:49:52;;;;;;;;;;;;;;;23.60;38.89;99617.13;5078364;28;20030;-77
2021/08/21 00:52:18;;;;;;;;;;;;;;;23.33;39.48;99625.13;5078294;28;20454;-75
2021/08/21 00:54:44;;;;;;;;;;;;;;;23.31;38.92;99624.47;5028158;28;20035;-76
2021/08/21 00:57:14;;;;;;;;;;;;;;;23.23;39.33;99624.63;5061200;28;20026;-77
2021/08/21 00:59:40;;;;;;;;;;;;;;;22.96;39.89;99626.28;5077981;28;19924;-75
2021/08/21 01:02:06;;;;;;;;;;;;;;;22.85;39.64;99619.44;5061621;28;19931;-75
2021/08/21 01:04:37;;;;;;;;;;;;;;;22.76;39.83;99626.91;5078139;28;19924;-76
2021/08/21 01:07:06;;;;;;;;;;;;;;;22.68;39.59;99628.91;5061660;28;19947;-76
2021/08/21 01:09:35;;;;;;;;;;;;;;;22.64;40.05;99627.59;5046006;28;19963;-76
2021/08/21 01:12:01;;;;;;;;;;;;;;;22.64;40.24;99627.59;5044919;28;19932;-75
2021/08/21 01:14:27;;;;;;;;;;;;;;;22.66;40.09;99631.00;5061257;28;19924;-75
2021/08/21 01:16:54;;;;;;;;;;;;;;;22.64;39.90;99633.06;5061621;28;19924;-76
2021/08/21 01:19:21;;;;;;;;;;;;;;;22.65;39.83;99635.59;5061131;28;19977;-75
2021/08/21 01:21:47;;;;;;;;;;;;;;;22.67;39.98;99632.69;5061014;28;19930;-76
2021/08/21 01:24:13;;;;;;;;;;;;;;;22.73;39.85;99621.00;5060942;28;20022;-77
2021/08/21 01:26:59;;;;;;;;;;;;;;;22.82;39.76;99629.88;5077961;28;19931;-75
2021/08/21 01:29:34;;;;;;;;;;;;;;;22.90;39.83;99633.31;5045362;28;20054;-76
2021/08/21 01:32:10;;;;;;;;;;;;;;;22.99;39.66;99632.19;5046914;28;19966;-76
2021/08/21 01:34:36;;;;;;;;;;;;;;;23.05;39.53;99630.53;5060392;28;20310;-75
2021/08/21 01:37:03;;;;;;;;;;;;;;;23.10;39.31;99629.97;5044288;28;19924;-76
2021/08/21 01:39:52;;;;;;;;;;;;;;;23.20;39.46;99630.47;5070009;28;20031;-76
2021/08/21 01:42:44;;;;;;;;;;;;;;;23.25;39.08;99630.75;5092973;28;19924;-76
2021/08/21 01:45:13;;;;;;;;;;;;;;;23.30;39.41;99639.16;5060820;28;19930;-76
2021/08/21 01:47:46;;;;;;;;;;;;;;;23.40;39.35;99634.22;5061028;28;20019;-77
2021/08/21 01:50:17;;;;;;;;;;;;;;;23.46;39.11;99638.00;5060423;28;19947;-76
2021/08/21 01:52:50;;;;;;;;;;;;;;;23.55;39.09;99630.53;5060948;28;19930;-78
2021/08/21 01:55:32;;;;;;;;;;;;;;;23.63;39.18;99628.47;5045810;28;20306;-79
2021/08/21 01:58:01;;;;;;;;;;;;;;;23.71;39.06;99633.81;5060913;28;20316;-77
2021/08/21 02:00:48;;;;;;;;;;;;;;;23.80;38.95;99634.47;5075971;28;19963;-81
2021/08/21 02:03:15;;;;;;;;;;;;;;;23.88;38.84;99634.34;5044475;28;19931;-81
2021/08/21 02:05:42;;;;;;;;;;;;;;;23.98;39.08;99632.06;5062623;28;19938;-82
2021/08/21 02:08:09;;;;;;;;;;;;;;;24.08;38.78;99630.84;5052436;28;19924;-82
2021/08/21 02:10:36;;;;;;;;;;;;;;;24.18;38.76;99636.75;5043742;28;19955;-82
2021/08/21 02:13:02;;;;;;;;;;;;;;;24.23;38.65;99631.56;5043578;28;20374;-80
2021/08/21 02:15:28;;;;;;;;;;;;;;;24.26;38.70;99636.59;5059882;28;19924;-80
2021/08/21 02:17:58;;;;;;;;;;;;;;;24.28;38.71;99639.97;5059753;28;19931;-81
2021/08/21 02:20:36;;;;;;;;;;;;;;;24.33;38.84;99634.72;5062079;28;19924;-80
2021/08/21 02:23:05;;;;;;;;;;;;;;;24.39;38.90;99627.63;5076421;28;19924;-80
2021/08/21 02:25:33;;;;;;;;;;;;;;;24.45;38.79;99633.13;5044060;28;19977;-79
2021/08/21 02:28:06;;;;;;;;;;;;;;;24.53;38.84;99634.00;5043250;28;20390;-79
2021/08/21 02:30:33;;;;;;;;;;;;;;;24.56;38.69;99636.28;5043710;28;19935;-79
2021/08/21 02:32:58;;;;;;;;;;;;;;;24.62;38.75;99632.75;5059562;28;19947;-79
2021/08/21 02:35:24;;;;;;;;;;;;;;;24.69;38.80;99636.34;5059614;28;20375;-78
2021/08/21 02:37:50;;;;;;;;;;;;;;;24.78;38.56;99636.97;5043149;28;20035;-78
2021/08/21 02:40:16;;;;;;;;;;;;;;;24.82;38.60;99636.34;5042671;28;19990;-79
2021/08/21 02:42:42;;;;;;;;;;;;;;;24.86;38.65;99634.91;5059690;28;19924;-76
2021/08/21 02:45:08;;;;;;;;;;;;;;;24.90;38.74;99640.81;5075955;28;19927;-78
2021/08/21 02:47:33;;;;;;;;;;;;;;;24.84;38.87;99637.00;5042531;28;19946;-77
2021/08/21 02:49:59;;;;;;;;;;;;;;;24.83;38.87;99650.88;5076060;28;19924;-77
2021/08/21 02:52:25;;;;;;;;;;;;;;;24.81;39.22;99648.34;5076118;28;20386;-78
2021/08/21 02:54:51;;;;;;;;;;;;;;;24.83;39.44;99650.88;5042541;28;20391;-76
2021/08/21 02:57:17;;;;;;;;;;;;;;;24.89;39.00;99639.94;5059353;28;19930;-77
2021/08/21 02:59:43;;;;;;;;;;;;;;;25.02;39.22;99638.28;5058775;28;20362;-76
2021/08/21 03:02:09;;;;;;;;;;;;;;;25.11;39.04;99648.81;5042302;28;20014;-76
2021/08/21 03:04:40;;;;;;;;;;;;;;;25.16;39.11;99645.44;5059801;28;19924;-76
2021/08/21 03:07:06;;;;;;;;;;;;;;;25.24;38.98;99642.53;5059056;28;19977;-77
2021/08/21 03:09:48;;;;;;;;;;;;;;;25.31;38.76;99637.03;5061453;28;20355;-77
2021/08/21 03:12:16;;;;;;;;;;;;;;;25.42;38.68;99642.72;5058992;28;19924;-77
2021/08/21 03:14:48;;;;;;;;;;;;;;;25.51;38.52;99646.09;5060075;28;19947;-77
2021/08/21 03:17:14;;;;;;;;;;;;;;;25.59;38.46;99645.03;5058718;28;20359;-76
2021/08/21 03:19:42;;;;;;;;;;;;;;;25.65;38.12;99644.16;5042588;28;20351;-76
2021/08/21 03:22:10;;;;;;;;;;;;;;;25.78;38.21;99652.38;5042708;28;19976;-77
2021/08/21 03:24:38;;;;;;;;;;;;;;;25.88;38.11;99650.06;5042846;28;19924;-79
2021/08/21 03:27:05;;;;;;;;;;;;;;;25.92;38.41;99654.03;5042796;28;20017;-77
2021/08/21 03:29:31;;;;;;;;;;;;;;;26.00;38.30;99663.91;5075502;28;19932;-77
2021/08/21 03:31:57;;;;;;;;;;;;;;;26.11;37.99;99657.78;5058954;28;19985;-76
2021/08/21 03:34:24;;;;;;;;;;;;;;;26.16;38.10;99659.84;5042162;28;20329;-77
2021/08/21 03:36:52;;;;;;;;;;;;;;;26.27;38.03;99655.59;5059181;28;19931;-80
2021/08/21 03:39:18;;;;;;;;;;;;;;;26.35;37.90;99660.84;5058937;28;20003;-76
2021/08/21 03:41:45;;;;;;;;;;;;;;;26.44;38.04;99664.16;5075343;28;19929;-78
2021/08/21 03:44:11;;;;;;;;;;;;;;;26.47;38.43;99658.28;5041990;28;19935;-79
2021/08/21 03:46:38;;;;;;;;;;;;;;;26.59;37.83;99657.38;5058258;28;19973;-74
2021/08/21 03:49:06;;;;;;;;;;;;;;;26.68;37.43;99660.72;5042532;28;20348;-76
2021/08/21 03:51:32;;;;;;;;;;;;;;;26.75;37.20;99661.50;5058336;28;20053;-77
2021/08/21 03:53:57;;;;;;;;;;;;;;;26.79;37.05;99657.25;5025386;28;19924;-80
2021/08/21 03:56:24;;;;;;;;;;;;;;;26.89;36.61;99665.00;5042161;28;19947;-77
2021/08/21 03:58:54;;;;;;;;;;;;;;;27.02;36.20;99655.84;5043041;28;19931;-79
2021/08/21 04:01:20;;;;;;;;;;;;;;;27.14;35.60;99665.06;5058999;28;20443;-78
2021/08/21 04:03:50;;;;;;;;;;;;;;;27.22;35.26;99656.56;5075001;28;19924;-79
2021/08/21 04:06:19;;;;;;;;;;;;;;;27.30;34.80;99663.66;5058260;28;20413;-78
2021/08/21 04:08:45;;;;;;;;;;;;;;;27.34;34.59;99664.91;5075114;28;19924;-81
2021/08/21 04:11:16;;;;;;;;;;;;;;;27.48;34.79;99663.72;5027375;28;19924;-78
2021/08/21 04:13:59;;;;;;;;;;;;;;;27.60;34.41;99658.31;5061892;28;20372;-79
2021/08/21 04:16:25;;;;;;;;;;;;;;;27.71;34.43;99659.50;5062397;28;19924;-77
2021/08/21 04:18:51;;;;;;;;;;;;;;;27.84;34.16;99664.91;5062023;28;19950;-78
2021/08/21 04:21:16;;;;;;;;;;;;;;;27.94;33.95;99664.34;5029019;28;19924;-79
2021/08/21 04:23:42;;;;;;;;;;;;;;;28.06;33.98;99659.81;5062321;28;20022;-78
2021/08/21 04:26:09;;;;;;;;;;;;;;;28.16;33.70;99662.00;5078845;28;19924;-77
2021/08/21 04:28:34;;;;;;;;;;;;;;;28.24;33.76;99667.19;5045288;28;19970;-77
2021/08/21 04:31:02;;;;;;;;;;;;;;;28.35;33.39;99669.16;5074948;28;19982;-76
2021/08/21 04:33:31;;;;;;;;;;;;;;;28.43;32.87;99665.28;5042108;28;19963;-75
2021/08/21 04:35:57;;;;;;;;;;;;;;;28.50;33.07;99664.13;5041685;28;19960;-76
2021/08/21 04:38:23;;;;;;;;;;;;;;;28.53;32.47;99662.81;5059214;28;19924;-78
2021/08/21 04:40:59;;;;;;;;;;;;;;;28.50;32.29;99664.13;5059375;28;20295;-78
2021/08/21 04:43:25;;;;;;;;;;;;;;;28.47;32.36;99666.50;5052423;28;19924;-78
2021/08/21 04:45:51;;;;;;;;;;;;;;;28.51;32.00;99670.44;5060831;28;19932;-80
2021/08/21 04:48:17;;;;;;;;;;;;;;;28.50;31.70;99663.28;5058601;28;19925;-78
2021/08/21 04:50:42;;;;;;;;;;;;;;;28.62;32.04;99655.91;5074819;28;19920;-78
2021/08/21 04:53:09;;;;;;;;;;;;;;;28.79;31.74;99662.44;5057783;28;19985;-78
2021/08/21 04:55:36;;;;;;;;;;;;;;;28.93;31.35;99663.09;5058184;28;19920;-79
2021/08/21 04:58:02;;;;;;;;;;;;;;;29.01;31.18;99664.72;5041475;28;19975;-77
2021/08/21 05:00:31;;;;;;;;;;;;;;;29.13;31.14;99662.81;5057857;28;20367;-78
2021/08/21 05:03:08;;;;;;;;;;;;;;;29.32;30.87;99655.31;5060245;28;20027;-78
2021/08/21 05:05:34;;;;;;;;;;;;;;;29.50;30.67;99659.88;5057600;28;19967;-76
2021/08/21 05:08:02;;;;;;;;;;;;;;;29.59;29.79;99660.38;5041764;28;19925;-75
2021/08/21 05:10:28;;;;;;;;;;;;;;;29.67;30.10;99660.84;5058681;28;19946;-79
2021/08/21 05:12:57;;;;;;;;;;;;;;;29.82;29.64;99654.03;5068656;28;20019;-77
2021/08/21 05:15:23;;;;;;;;;;;;;;;29.96;29.34;99649.94;5075084;28;19976;-75
2021/08/21 05:18:12;;;;;;;;;;;;;;;30.13;28.88;99661.06;5074829;28;19924;-77
2021/08/21 05:20:52;;;;;;;;;;;;;;;30.24;28.32;99652.81;5080045;28;20415;-77
2021/08/21 05:23:20;;;;;;;;;;;;;;;30.39;27.96;99659.69;5057152;28;19930;-78
2021/08/21 05:25:46;;;;;;;;;;;;;;;30.52;27.81;99648.38;5074431;28;20372;-78
2021/08/21 05:28:17;;;;;;;;;;;;;;;30.65;27.61;99650.84;5057887;28;19931;-76
2021/08/21 05:30:43;;;;;;;;;;;;;;;30.80;27.04;99663.28;5057329;28;19982;-77
2021/08/21 05:33:10;;;;;;;;;;;;;;;30.88;26.71;99651.84;5041750;28;19929;-77
2021/08/21 05:35:36;;;;;;;;;;;;;;;31.05;26.82;99651.88;5040708;28;19924;-77
2021/08/21 05:38:02;;;;;;;;;;;;;;;31.20;26.11;99650.22;5074002;28;20390;-76
2021/08/21 05:40:27;;;;;;;;;;;;;;;31.35;26.13;99651.59;5058368;28;19982;-77
2021/08/21 05:42:53;;;;;;;;;;;;;;;31.44;25.93;99645.41;5067733;28;19929;-77
2021/08/21 05:45:19;;;;;;;;;;;;;;;31.48;25.73;99645.69;5074174;28;20351;-77
2021/08/21 05:47:45;;;;;;;;;;;;;;;31.53;25.77;99651.31;5075184;28;19924;-76
2021/08/21 05:50:11;;;;;;;;;;;;;;;31.59;25.68;99646.69;5057579;28;19932;-77
2021/08/21 05:52:37;;;;;;;;;;;;;;;31.78;25.70;99644.50;5057782;28;20295;-77
2021/08/21 05:55:03;;;;;;;;;;;;;;;31.98;25.70;99650.34;5057495;28;20311;-75
2021/08/21 05:57:40;;;;;;;;;;;;;;;32.17;25.20;99642.59;5059118;28;20418;-77
2021/08/21 06:00:06;;;;;;;;;;;;;;;32.37;25.13;99647.53;5057228;28;20016;-77
2021/08/21 06:02:38;;;;;;;;;;;;;;;32.48;24.80;99649.34;5042668;28;20312;-76
2021/08/21 06:05:04;;;;;;;;;;;;;;;32.65;24.32;99646.50;5075157;28;19925;-77
2021/08/21 06:07:32;;;;;;;;;;;;;;;32.74;24.36;99641.31;5025881;28;19959;-77
2021/08/21 06:10:03;;;;;;;;;;;;;;;32.94;24.20;99640.72;5049429;28;20366;-75
2021/08/21 06:12:29;;;;;;;;;;;;;;;33.08;23.88;99645.56;5057559;28;19924;-77
2021/08/21 06:14:55;;;;;;;;;;;;;;;33.18;23.45;99644.84;5057127;28;20275;-76
2021/08/21 06:17:21;;;;;;;;;;;;;;;33.19;23.62;99634.56;5040814;28;19989;-76
2021/08/21 06:19:47;;;;;;;;;;;;;;;33.33;23.42;99644.13;5040434;28;20026;-77
2021/08/21 06:22:12;;;;;;;;;;;;;;;33.54;23.56;99636.81;5057511;28;19939;-76
2021/08/21 06:24:40;;;;;;;;;;;;;;;33.67;23.09;99636.34;5075449;28;19925;-77
2021/08/21 06:27:06;;;;;;;;;;;;;;;33.80;23.12;99638.63;5085525;28;19969;-78
2021/08/21 06:29:35;;;;;;;;;;;;;;;33.98;23.07;99645.72;5041165;28;20030;-76
2021/08/21 06:32:04;;;;;;;;;;;;;;;34.12;22.58;99639.69;5044867;28;19924;-76
2021/08/21 06:34:30;;;;;;;;;;;;;;;34.24;22.33;99643.06;5085395;28;19924;-76
2021/08/21 06:36:57;;;;;;;;;;;;;;;34.29;22.59;99634.75;5043359;28;19931;-77
2021/08/21 06:39:23;;;;;;;;;;;;;;;34.50;22.41;99641.25;5066151;28;20302;-76
2021/08/21 06:41:49;;;;;;;;;;;;;;;34.62;21.84;99643.78;5044740;28;19927;-76
2021/08/21 06:44:15;;;;;;;;;;;;;;;34.67;22.24;99635.44;5061783;28;19924;-76
2021/08/21 06:46:41;;;;;;;;;;;;;;;34.89;22.06;99640.75;5061992;28;19927;-76
2021/08/21 06:49:07;;;;;;;;;;;;;;;34.98;21.70;99631.63;5049484;28;19935;-76
2021/08/21 06:51:33;;;;;;;;;;;;;;;35.09;21.78;99642.75;5075388;28;19931;-77
2021/08/21 06:53:58;;;;;;;;;;;;;;;35.14;21.24;99640.00;5093485;28;20010;-77
2021/08/21 06:56:24;;;;;;;;;;;;;;;35.13;21.28;99632.75;5058852;28;19923;-76
2021/08/21 06:58:50;;;;;;;;;;;;;;;35.16;21.57;99632.19;5058966;28;19924;-78
2021/08/21 07:01:16;;;;;;;;;;;;;;;35.22;21.05;99631.09;5041365;28;19924;-74
2021/08/21 07:03:42;;;;;;;;;;;;;;;35.28;20.89;99638.31;5092903;28;19928;-76
2021/08/21 07:06:08;;;;;;;;;;;;;;;35.29;20.59;99631.66;5058049;28;19943;-76
2021/08/21 07:08:33;;;;;;;;;;;;;;;35.24;20.79;99634.41;5074905;28;20310;-76
2021/08/21 07:10:59;;;;;;;;;;;;;;;35.46;20.59;99629.41;5041495;28;19931;-76
2021/08/21 07:13:25;;;;;;;;;;;;;;;35.72;20.79;99630.22;5075229;28;19924;-79
2021/08/21 07:15:51;;;;;;;;;;;;;;;35.90;20.33;99631.56;5025390;28;19924;-79
2021/08/21 07:18:17;;;;;;;;;;;;;;;35.90;20.24;99626.00;5058742;28;19930;-78
2021/08/21 07:20:42;;;;;;;;;;;;;;;36.05;19.85;99627.94;5057150;28;20387;-79
2021/08/21 07:23:08;;;;;;;;;;;;;;;36.17;20.02;99619.25;5075100;28;19924;-79
2021/08/21 07:25:34;;;;;;;;;;;;;;;36.36;20.43;99627.78;5080295;28;19924;-78
2021/08/21 07:28:00;;;;;;;;;;;;;;;36.51;19.71;99626.91;5061986;28;19996;-78
2021/08/21 07:30:26;;;;;;;;;;;;;;;36.71;19.64;99624.00;5078547;28;19952;-78
2021/08/21 07:32:52;;;;;;;;;;;;;;;36.98;19.93;99625.53;5062265;28;20433;-78
2021/08/21 07:35:18;;;;;;;;;;;;;;;37.11;19.44;99622.91;5078524;28;19923;-76
2021/08/21 07:37:43;;;;;;;;;;;;;;;37.19;18.81;99613.06;5078805;28;19984;-77
2021/08/21 07:40:09;;;;;;;;;;;;;;;37.34;18.47;99621.31;5095444;28;19923;-77
2021/08/21 07:42:35;;;;;;;;;;;;;;;37.38;18.50;99621.53;5095431;28;19924;-77
2021/08/21 07:45:02;;;;;;;;;;;;;;;37.54;18.66;99622.25;5061727;28;19972;-76
2021/08/21 07:47:27;;;;;;;;;;;;;;;37.72;18.48;99620.69;5065270;28;20018;-77
2021/08/21 07:49:53;;;;;;;;;;;;;;;37.84;18.22;99615.50;5099657;28;20419;-78
2021/08/21 07:52:19;;;;;;;;;;;;;;;37.80;17.87;99615.31;5083087;28;19924;-77
2021/08/21 07:54:45;;;;;;;;;;;;;;;37.93;18.11;99615.75;5082402;28;19923;-77
2021/08/21 07:57:11;;;;;;;;;;;;;;;38.20;17.47;99609.53;5082337;28;20631;-76
2021/08/21 07:59:36;;;;;;;;;;;;;;;38.21;17.48;99613.97;5099194;28;19930;-77
2021/08/21 08:02:02;;;;;;;;;;;;;;;37.94;17.56;99611.81;5099128;28;19930;-77
2021/08/21 08:04:28;;;;;;;;;;;;;;;38.15;16.63;99613.22;5082242;28;20001;-77
2021/08/21 08:06:54;;;;;;;;;;;;;;;38.27;16.77;99610.84;5057426;28;19970;-76
2021/08/21 08:09:19;;;;;;;;;;;;;;;38.56;16.65;99612.72;5045538;28;20409;-75
2021/08/21 08:11:45;;;;;;;;;;;;;;;38.83;16.37;99612.06;5079361;28;20027;-75
2021/08/21 08:14:11;;;;;;;;;;;;;;;39.10;16.39;99611.31;5045417;28;20366;-76
2021/08/21 08:16:36;;;;;;;;;;;;;;;39.22;15.81;99608.88;5097614;28;19924;-76
2021/08/21 08:19:02;;;;;;;;;;;;;;;39.34;15.57;99611.22;5062389;28;19924;-77
2021/08/21 08:21:28;;;;;;;;;;;;;;;39.54;14.96;99615.63;5078472;28;19924;-78
2021/08/21 08:23:55;;;;;;;;;;;;;;;39.59;15.53;99612.72;5078543;28;20045;-77
2021/08/21 08:26:21;;;;;;;;;;;;;;;39.71;15.45;99603.84;5079158;28;20074;-76
2021/08/21 08:28:47;;;;;;;;;;;;;;;39.94;15.26;99601.97;5061905;28;19997;-78
2021/08/21 08:31:13;;;;;;;;;;;;;;;39.33;14.43;99599.19;5041912;28;19928;-78
2021/08/21 08:33:39;;;;;;;;;;;;;;;38.52;14.81;99606.06;5041783;28;20387;-77
2021/08/21 08:36:04;;;;;;;;;;;;;;;38.48;15.20;99593.81;5064083;28;19931;-77
2021/08/21 08:38:37;;;;;;;;;;;;;;;39.08;15.25;99594.00;5079427;28;19924;-77
2021/08/21 08:41:03;;;;;;;;;;;;;;;39.34;15.07;99589.69;5058619;28;19924;-77
2021/08/21 08:43:28;;;;;;;;;;;;;;;39.22;14.69;99589.28;5058762;28;19924;-77
2021/08/21 08:45:54;;;;;;;;;;;;;;;39.38;14.72;99594.66;5058770;28;19928;-78
2021/08/21 08:48:20;;;;;;;;;;;;;;;39.85;14.84;99598.25;5041623;28;19924;-78
2021/08/21 08:50:47;;;;;;;;;;;;;;;40.04;14.33;99585.81;5058670;28;19963;-77
2021/08/21 08:53:12;;;;;;;;;;;;;;;39.85;14.36;99587.06;5058474;28;19924;-77
2021/08/21 08:55:40;;;;;;;;;;;;;;;39.98;14.68;99591.81;5058272;28;20413;-76
2021/08/21 08:58:05;;;;;;;;;;;;;;;40.24;14.16;99590.16;5057088;28;19924;-74
2021/08/21 09:00:31;;;;;;;;;;;;;;;40.45;13.67;99584.13;5057923;28;19977;-76
2021/08/21 09:02:58;;;;;;;;;;;;;;;40.68;13.96;99587.81;5058132;28;20311;-77
2021/08/21 09:05:25;;;;;;;;;;;;;;;40.86;13.78;99577.56;5058372;28;20302;-76
2021/08/21 09:07:52;;;;;;;;;;;;;;;40.09;13.82;99582.06;5079427;28;20014;-74
2021/08/21 09:10:18;;;;;;;;;;;;;;;39.94;13.91;99574.00;5093737;28;20347;-75
2021/08/21 09:12:44;;;;;;;;;;;;;;;40.00;14.23;99572.75;5077787;28;19924;-75
2021/08/21 09:15:19;;;;;;;;;;;;;;;40.36;14.12;99569.19;5094409;28;19931;-74
2021/08/21 09:18:07;;;;;;;;;;;;;;;40.61;13.88;99576.22;5094820;28;20286;-75
2021/08/21 09:20:48;;;;;;;;;;;;;;;41.00;13.84;99575.56;5094484;28;19931;-76
2021/08/21 09:23:24;;;;;;;;;;;;;;;41.17;13.63;99577.63;5094217;28;20302;-75
2021/08/21 09:25:51;;;;;;;;;;;;;;;41.36;13.66;99569.00;5077495;28;19976;-76
2021/08/21 09:28:24;;;;;;;;;;;;;;;41.57;13.31;99570.13;5044082;28;20280;-76
2021/08/21 09:31:09;;;;;;;;;;;;;;;41.61;12.08;99568.34;5060466;28;20015;-75
2021/08/21 09:33:36;;;;;;;;;;;;;;;41.83;11.83;99561.84;5051548;28;19924;-75
2021/08/21 09:36:02;;;;;;;;;;;;;;;42.01;11.61;99564.69;5073555;28;20268;-75
2021/08/21 09:38:32;;;;;;;;;;;;;;;42.03;11.84;99563.22;5040710;28;19925;-77
2021/08/21 09:41:01;;;;;;;;;;;;;;;42.50;11.67;99566.28;5057331;28;19932;-75
2021/08/21 09:43:31;;;;;;;;;;;;;;;42.75;11.26;99561.03;5073677;28;19977;-75
2021/08/21 09:46:26;;;;;;;;;;;;;;;42.79;11.20;99562.81;5073621;28;20276;-73
2021/08/21 09:48:55;;;;;;;;;;;;;;;42.89;11.03;99562.50;5082469;28;19928;-73
2021/08/21 09:51:36;;;;;;;;;;;;;;;42.76;10.50;99559.84;5058786;28;19931;-75
2021/08/21 09:54:02;;;;;;;;;;;;;;;43.20;11.06;99563.47;5073444;28;19928;-75
2021/08/21 09:56:34;;;;;;;;;;;;;;;43.61;10.54;99560.84;5056729;28;19924;-75
2021/08/21 09:59:01;;;;;;;;;;;;;;;43.53;9.81;99561.72;5057208;28;19925;-75
2021/08/21 10:01:27;;;;;;;;;;;;;;;43.17;9.97;99556.50;5040192;28;19950;-74
2021/08/21 10:03:53;;;;;;;;;;;;;;;43.55;9.95;99548.13;5074567;28;19928;-75
2021/08/21 10:06:18;;;;;;;;;;;;;;;43.77;9.63;99552.66;5039917;28;19925;-75
2021/08/21 10:08:44;;;;;;;;;;;;;;;43.93;9.67;99552.91;5056424;28;20018;-75
2021/08/21 10:11:10;;;;;;;;;;;;;;;44.22;9.29;99554.91;5073366;28;19925;-75
2021/08/21 10:13:37;;;;;;;;;;;;;;;44.27;9.63;99554.75;5039722;28;19978;-76
2021/08/21 10:16:07;;;;;;;;;;;;;;;44.54;9.36;99549.72;5039677;28;20295;-74
2021/08/21 10:18:32;;;;;;;;;;;;;;;44.73;9.12;99552.06;5074273;28;20306;-75
2021/08/21 10:20:58;;;;;;;;;;;;;;;44.54;8.89;99550.53;5083835;28;19924;-75
2021/08/21 10:23:27;;;;;;;;;;;;;;;44.67;9.20;99542.16;5076064;28;19994;-75
2021/08/21 10:25:57;;;;;;;;;;;;;;;45.25;9.04;99541.09;5059919;28;20034;-76
2021/08/21 10:28:23;;;;;;;;;;;;;;;45.57;8.98;99549.03;5093281;28;19946;-76
2021/08/21 10:30:49;;;;;;;;;;;;;;;45.76;9.04;99541.63;5059182;28;20379;-75
2021/08/21 10:33:30;;;;;;;;;;;;;;;46.10;8.64;99541.50;5090642;27;19921;-79
2021/08/21 10:35:56;;;;;;;;;;;;;;;46.16;8.58;99540.91;5074073;28;19925;-76
2021/08/21 10:38:38;;;;;;;;;;;;;;;46.49;8.82;99537.91;5053065;28;20369;-82
2021/08/21 10:41:10;;;;;;;;;;;;;;;46.42;8.72;99537.69;5052975;28;19941;-76
2021/08/21 10:43:45;;;;;;;;;;;;;;;46.12;8.83;99534.34;5070516;28;19947;-76
2021/08/21 10:46:11;;;;;;;;;;;;;;;46.53;8.98;99531.50;5052232;28;19932;-73
2021/08/21 10:48:37;;;;;;;;;;;;;;;47.08;8.59;99527.91;5035922;28;19931;-76
2021/08/21 10:51:14;;;;;;;;;;;;;;;47.44;8.70;99526.84;5069343;28;20016;-74
2021/08/21 10:53:41;;;;;;;;;;;;;;;47.78;8.58;99524.47;5036247;28;19925;-75
2021/08/21 10:56:06;;;;;;;;;;;;;;;48.16;8.13;99531.47;5052599;28;20386;-75
2021/08/21 10:58:32;;;;;;;;;;;;;;;48.41;8.54;99529.16;5035462;28;20031;-74
2021/08/21 11:01:01;;;;;;;;;;;;;;;48.59;7.50;99530.38;5051849;28;20413;-74
2021/08/21 11:03:26;;;;;;;;;;;;;;;48.43;7.71;99515.47;5068565;28;19925;-74
2021/08/21 11:05:52;;;;;;;;;;;;;;;48.24;7.50;99513.41;5052138;28;19925;-74
2021/08/21 11:08:18;;;;;;;;;;;;;;;47.61;7.59;99513.50;5068821;28;20039;-74
2021/08/21 11:10:44;;;;;;;;;;;;;;;47.80;7.94;99513.59;5068573;28;19968;-74
2021/08/21 11:13:12;;;;;;;;;;;;;;;48.21;7.68;99514.16;5051848;28;20302;-75
2021/08/21 11:15:38;;;;;;;;;;;;;;;48.68;7.86;99506.66;5068338;28;20444;-76
2021/08/21 11:18:05;;;;;;;;;;;;;;;48.84;7.51;99511.06;5051945;28;19925;-75
2021/08/21 11:20:32;;;;;;;;;;;;;;;48.69;7.38;99514.78;5052061;28;19971;-74
2021/08/21 11:23:07;;;;;;;;;;;;;;;48.96;7.36;99507.22;5068394;28;20022;-75
2021/08/21 11:25:33;;;;;;;;;;;;;;;49.27;6.96;99508.19;5069827;28;20019;-75
2021/08/21 11:28:05;;;;;;;;;;;;;;;49.49;7.19;99506.53;5068223;28;19963;-76
2021/08/21 11:30:31;;;;;;;;;;;;;;;49.80;7.11;99508.28;5035361;28;20402;-75
2021/08/21 11:32:58;;;;;;;;;;;;;;;48.88;7.05;99505.44;5031355;28;19929;-75
2021/08/21 11:35:25;;;;;;;;;;;;;;;48.22;7.67;99498.78;5048407;28;19924;-75
2021/08/21 11:37:52;;;;;;;;;;;;;;;48.42;7.36;99493.13;5048057;28;20323;-76
2021/08/21 11:40:19;;;;;;;;;;;;;;;48.28;7.37;99485.94;5048040;28;19924;-76
2021/08/21 11:42:55;;;;;;;;;;;;;;;48.43;7.42;99489.94;5046160;28;20331;-75
2021/08/21 11:45:21;;;;;;;;;;;;;;;48.98;7.51;99487.00;5051231;28;20453;-75
2021/08/21 11:47:46;;;;;;;;;;;;;;;49.69;7.20;99491.09;5051323;28;19956;-75
2021/08/21 11:50:29;;;;;;;;;;;;;;;50.21;7.04;99483.75;5034791;28;20391;-75
2021/08/21 11:52:55;;;;;;;;;;;;;;;50.19;6.78;99474.75;5051126;28;20284;-75
2021/08/21 11:55:21;;;;;;;;;;;;;;;49.74;6.79;99481.41;5034665;28;19972;-75
2021/08/21 11:57:47;;;;;;;;;;;;;;;48.11;7.31;99475.88;5034779;28;20384;-74
2021/08/21 12:00:14;;;;;;;;;;;;;;;48.43;7.55;99481.44;5017239;28;20300;-77
2021/08/21 12:02:44;;;;;;;;;;;;;;;49.18;7.49;99480.06;5031719;28;19932;-75
2021/08/21 12:05:10;;;;;;;;;;;;;;;49.11;7.03;99485.59;5020550;28;20033;-75
2021/08/21 12:07:35;;;;;;;;;;;;;;;49.73;6.91;99480.59;5014669;28;20016;-75
2021/08/21 12:10:01;;;;;;;;;;;;;;;50.26;6.62;99480.56;5028550;28;19979;-75
2021/08/21 12:12:29;;;;;;;;;;;;;;;49.72;6.55;99473.25;5017491;28;19932;-74
2021/08/21 12:14:55;;;;;;;;;;;;;;;48.88;6.88;99477.06;5050379;28;19968;-75
2021/08/21 12:17:20;;;;;;;;;;;;;;;49.09;6.92;99473.81;5050457;28;20006;-75
2021/08/21 12:19:46;;;;;;;;;;;;;;;49.33;6.75;99470.59;5050415;28;19925;-75
2021/08/21 12:22:12;;;;;;;;;;;;;;;49.85;6.81;99476.75;5033848;28;20434;-75
2021/08/21 12:24:50;;;;;;;;;;;;;;;50.34;6.66;99477.81;5035048;28;19925;-75
2021/08/21 12:27:23;;;;;;;;;;;;;;;50.48;5.90;99480.81;5050721;28;20353;-75
2021/08/21 12:30:04;;;;;;;;;;;;;;;50.74;5.79;99477.06;5033945;28;20419;-75
2021/08/21 12:32:30;;;;;;;;;;;;;;;50.98;5.67;99478.59;5050260;28;19968;-75
2021/08/21 12:35:12;;;;;;;;;;;;;;;51.32;5.53;99475.66;5017305;28;19929;-75
2021/08/21 12:37:38;;;;;;;;;;;;;;;51.11;5.28;99467.72;5017601;28;20031;-75
2021/08/21 12:40:06;;;;;;;;;;;;;;;51.42;5.63;99472.91;5050229;28;20011;-74
2021/08/21 12:42:32;;;;;;;;;;;;;;;51.69;5.20;99476.38;5033462;28;19925;-74
2021/08/21 12:45:00;;;;;;;;;;;;;;;51.71;5.31;99475.97;5035298;28;20370;-75
2021/08/21 12:47:28;;;;;;;;;;;;;;;51.22;5.38;99472.28;5023407;28;19924;-75
2021/08/21 12:49:57;;;;;;;;;;;;;;;51.38;5.68;99474.06;5036880;28;19925;-78
2021/08/21 12:52:23;;;;;;;;;;;;;;;51.76;5.02;99469.06;5053668;28;20395;-76